TimeAST,TemperatureF,Dew PointF,Humidity,Sea Level PressureIn,VisibilityMPH,Wind Direction,Wind SpeedMPH,Gust SpeedMPH,PrecipitationIn,Events,Conditions,WindDirDegrees,DateUTC
12:00 AM,78.8,73.4,83,29.89,6.2,East,16.1,-,N/A,,Scattered Clouds,100,2013-03-20 04:00:00
1:00 AM,78.8,73.4,83,29.89,6.2,ESE,17.3,-,N/A,,Scattered Clouds,110,2013-03-20 05:00:00
2:00 AM,79,73,77,29.88,16,ESE,20.7,,,,Partly Cloudy,110,2013-03-20 06:00:00
2:00 AM,78.8,73.4,83,29.86,6.2,ESE,20.7,-,N/A,,Scattered Clouds,110,2013-03-20 06:00:00
3:00 AM,78.8,73.4,83,29.86,6.2,ESE,18.4,-,N/A,,Partly Cloudy,110,2013-03-20 07:00:00
4:00 AM,78.8,73.4,83,29.86,6.2,ESE,18.4,-,N/A,,Partly Cloudy,120,2013-03-20 08:00:00
5:00 AM,78,73,80,29.88,16,ESE,18.4,,,,Scattered Clouds,110,2013-03-20 09:00:00
5:00 AM,78.8,73.4,83,29.86,6.2,ESE,18.4,-,N/A,,Partly Cloudy,110,2013-03-20 09:00:00
6:00 AM,77.0,73.4,89,29.89,6.2,ESE,16.1,-,N/A,,Mostly Cloudy,120,2013-03-20 10:00:00
7:00 AM,78.8,73.4,83,29.89,6.2,ESE,16.1,28.8,N/A,,Mostly Cloudy,120,2013-03-20 11:00:00
8:00 AM,80,74,79,29.92,12,ESE,18.4,,,Rain,Light Rain Showers,120,2013-03-20 12:00:00
8:00 AM,80.6,75.2,84,29.92,6.2,ESE,18.4,-,N/A,Rain,Light Rain Showers,120,2013-03-20 12:00:00
9:00 AM,82.4,77.0,84,29.92,6.2,ESE,17.3,-,N/A,,Mostly Cloudy,120,2013-03-20 13:00:00
10:00 AM,82.4,75.2,79,29.95,6.2,SE,16.1,29.9,N/A,,Scattered Clouds,130,2013-03-20 14:00:00
11:00 AM,83,73,65,29.95,12,SE,19.6,,,,Widespread Dust,130,2013-03-20 15:00:00
11:00 AM,82.4,73.4,74,29.95,6.2,SE,19.6,-,N/A,,Scattered Clouds,130,2013-03-20 15:00:00
12:00 PM,82.4,75.2,79,29.92,6.2,ESE,18.4,-,N/A,,Scattered Clouds,110,2013-03-20 16:00:00
1:00 PM,82.4,75.2,79,29.95,6.2,SE,16.1,-,N/A,,Scattered Clouds,130,2013-03-20 17:00:00
2:00 PM,83,74,69,29.88,11,ESE,18.4,,,,Partly Cloudy,120,2013-03-20 18:00:00
2:00 PM,84.2,75.2,74,29.86,6.2,ESE,18.4,-,N/A,,Partly Cloudy,120,2013-03-20 18:00:00
3:00 PM,84.2,75.2,74,29.86,6.2,SE,19.6,-,N/A,,Mostly Cloudy,140,2013-03-20 19:00:00
4:00 PM,86.0,75.2,70,29.86,6.2,SE,18.4,-,N/A,,Mostly Cloudy,130,2013-03-20 20:00:00
5:00 PM,83,71,58,29.86,14,ESE,19.6,,,,Scattered Clouds,110,2013-03-20 21:00:00
5:00 PM,82.4,75.2,79,29.86,6.2,ESE,19.6,-,N/A,,Mostly Cloudy,110,2013-03-20 21:00:00
6:00 PM,80.6,75.2,84,29.86,6.2,ESE,17.3,-,N/A,,Mostly Cloudy,120,2013-03-20 22:00:00
7:00 PM,78.8,75.2,89,29.86,6.2,ESE,17.3,-,N/A,,Mostly Cloudy,110,2013-03-20 23:00:00
8:00 PM,79,74,80,29.89,14,ESE,13.8,,,,Widespread Dust,120,2013-03-21 00:00:00
8:00 PM,78.8,73.4,83,29.89,6.2,ESE,13.8,-,N/A,,Mostly Cloudy,120,2013-03-21 00:00:00
9:00 PM,78.8,73.4,83,29.89,6.2,East,17.3,-,N/A,,Mostly Cloudy,100,2013-03-21 01:00:00
10:00 PM,78.8,73.4,83,29.92,6.2,ESE,15.0,-,N/A,,Mostly Cloudy,110,2013-03-21 02:00:00
11:00 PM,79,73,78,29.91,14,ESE,15.0,,,,Widespread Dust,110,2013-03-21 03:00:00
11:00 PM,78.8,73.4,83,29.89,6.2,ESE,15.0,-,N/A,,Mostly Cloudy,110,2013-03-21 03:00:00